Estación Meteorológica Peña el Pijo (Robertgarden) [ 12/14/19 08:41:27 CET ]

Fecha Hora Presion(HPa) Temp (°C) Humedad % Rocio (°C) Viento ( m/s) Direccion Lluvia 1Hora(mm) Lluvia 24H(mm) LLuvia Total(mm)
2019-Aug-02 01:01:48 1010.000 19.2 61 11.5         344.18
2019-Aug-02 02:01:41 1009.700 18.1 65 11.4         344.18
2019-Aug-02 03:01:44 1009.700 17.2 68 11.2         344.18
2019-Aug-02 04:01:44 1009.800 16.6 70 11.1         344.18
2019-Aug-02 05:03:16 1009.800 16.4 71 11.2         344.18
2019-Aug-02 06:01:41 1009.700 17.2 70 11.7         344.18
2019-Aug-02 07:01:47 1009.900 15.8 70 10.4         344.18
2019-Aug-02 08:01:36 1010.100 15.9 73 11.1         344.18
2019-Aug-02 09:01:41 1010.200 21.9 60 13.8         344.18
2019-Aug-02 10:01:52 1010.100 27.0 46 14.3         344.18
2019-Aug-02 11:01:26 1010.100 32.3 31 13.0         344.18
2019-Aug-02 12:02:03 1009.800 33.2 29 12.8         344.18
2019-Aug-02 13:01:41 1009.600 36.0 27 13.9         344.18
2019-Aug-02 14:01:42 1009.500 34.9 27 12.9         344.18
2019-Aug-02 15:01:38 1009.300 35.6 27 13.5         344.18
2019-Aug-02 16:01:31 1009.200 34.9 30 14.8         344.18
2019-Aug-02 17:01:42 1008.900 34.8 31 15.2         344.18
2019-Aug-02 18:01:50 1009.100 30.3 39 14.8         344.18
2019-Aug-02 19:01:54 1008.900 30.4 41 15.7         344.18
2019-Aug-02 20:01:46 1009.100 29.3 43 15.4         344.18
2019-Aug-02 21:01:51 1009.200 28.0 45 14.9         344.18
2019-Aug-02 22:01:54 1009.800 26.0 48 14.1         344.18
2019-Aug-02 23:01:51 1010.600 23.7 53 13.5         344.18

Temperatura Máxima:36°    Temperatura Mínima:15°
Presión Máxima:1010.600 Hpa    Presión Mínima:1008.900 Hpa


Volver